VJC1123 VVTS-VVPK
Flight info
| Callsign | VJC1123 |
|---|---|
| Flight time | 0h 46m |
| Altitude | 27000 |
| Route | AC7B AC W1 MEVON MEVON1U |
| Aircraft | A321/M-SDE3FGHIRWY/LB1 |
Departure
| Time | 2026-04-23 15:11 |
|---|---|
| Airport | Tan Son Nhat International Airport (VVTS) |
Arrival
| Time | 2026-04-23 15:57 |
|---|---|
| Airport | Pleiku Airport (VVPK) |
| Time | Latitude | Longitude | Altitude | Speed | Heading |
|---|---|---|---|---|---|
| 2026-04-23 14:48 | 10.81465 | 106.66119 | 37 ft | 0 kts | 95° |
| 2026-04-23 15:00 | 10.81466 | 106.66102 | 37 ft | 4 kts | 95° |
| 2026-04-23 15:00 | 10.81468 | 106.66075 | 37 ft | 3 kts | 95° |
| 2026-04-23 15:00 | 10.81468 | 106.66054 | 37 ft | 4 kts | 60° |
| 2026-04-23 15:01 | 10.81449 | 106.66037 | 35 ft | 4 kts | 18° |
| 2026-04-23 15:01 | 10.81423 | 106.66031 | 35 ft | 3 kts | 5° |
| 2026-04-23 15:01 | 10.81420 | 106.66031 | 33 ft | 0 kts | 5° |
| 2026-04-23 15:04 | 10.81423 | 106.66031 | 35 ft | 2 kts | 5° |
| 2026-04-23 15:04 | 10.81456 | 106.66034 | 34 ft | 11 kts | 5° |
| 2026-04-23 15:04 | 10.81539 | 106.66043 | 35 ft | 12 kts | 6° |
| 2026-04-23 15:04 | 10.81616 | 106.66051 | 36 ft | 11 kts | 5° |
| 2026-04-23 15:05 | 10.81685 | 106.66057 | 37 ft | 9 kts | 5° |
| 2026-04-23 15:05 | 10.81750 | 106.66062 | 37 ft | 11 kts | 5° |
| 2026-04-23 15:05 | 10.81834 | 106.66071 | 36 ft | 12 kts | 14° |
| 2026-04-23 15:05 | 10.81883 | 106.66132 | 36 ft | 11 kts | 68° |
| 2026-04-23 15:06 | 10.81910 | 106.66205 | 36 ft | 10 kts | 69° |
| 2026-04-23 15:06 | 10.81934 | 106.66268 | 37 ft | 9 kts | 69° |
| 2026-04-23 15:06 | 10.81958 | 106.66330 | 37 ft | 14 kts | 69° |
| 2026-04-23 15:06 | 10.82003 | 106.66453 | 35 ft | 20 kts | 69° |
| 2026-04-23 15:07 | 10.82055 | 106.66591 | 34 ft | 21 kts | 69° |
| 2026-04-23 15:07 | 10.82106 | 106.66727 | 33 ft | 21 kts | 69° |
| 2026-04-23 15:07 | 10.82160 | 106.66865 | 32 ft | 21 kts | 69° |
| 2026-04-23 15:07 | 10.82207 | 106.66986 | 35 ft | 13 kts | 66° |
| 2026-04-23 15:08 | 10.82264 | 106.67004 | 35 ft | 8 kts | 343° |
| 2026-04-23 15:08 | 10.82317 | 106.66985 | 35 ft | 7 kts | 332° |
| 2026-04-23 15:08 | 10.82356 | 106.66953 | 35 ft | 6 kts | 315° |
| 2026-04-23 15:09 | 10.82355 | 106.66909 | 35 ft | 0 kts | 252° |
| 2026-04-23 15:10 | 10.82317 | 106.66783 | 33 ft | 59 kts | 253° |
| 2026-04-23 15:10 | 10.82061 | 106.66149 | 38 ft | 137 kts | 249° |
| 2026-04-23 15:10 | 10.81618 | 106.65027 | 182 ft | 191 kts | 246° |
| 2026-04-23 15:11 | 10.81148 | 106.63762 | 1118 ft | 193 kts | 249° |
| 2026-04-23 15:11 | 10.80747 | 106.62417 | 1541 ft | 208 kts | 251° |
| 2026-04-23 15:11 | 10.80332 | 106.60929 | 1736 ft | 227 kts | 251° |
| 2026-04-23 15:11 | 10.79902 | 106.59391 | 2485 ft | 225 kts | 251° |
| 2026-04-23 15:12 | 10.79375 | 106.57886 | 3196 ft | 227 kts | 239° |
| 2026-04-23 15:12 | 10.78358 | 106.56670 | 3859 ft | 228 kts | 232° |
| 2026-04-23 15:12 | 10.77777 | 106.55159 | 4506 ft | 234 kts | 257° |
| 2026-04-23 15:12 | 10.77470 | 106.53516 | 5101 ft | 238 kts | 256° |
| 2026-04-23 15:13 | 10.76968 | 106.51904 | 5478 ft | 240 kts | 248° |
| 2026-04-23 15:13 | 10.76147 | 106.50431 | 6136 ft | 241 kts | 223° |
| 2026-04-23 15:13 | 10.74745 | 106.49561 | 6696 ft | 242 kts | 193° |
| 2026-04-23 15:13 | 10.73086 | 106.49537 | 7297 ft | 241 kts | 164° |
| 2026-04-23 15:14 | 10.71482 | 106.50046 | 7924 ft | 243 kts | 158° |
| 2026-04-23 15:14 | 10.70008 | 106.50884 | 8546 ft | 244 kts | 141° |
| 2026-04-23 15:14 | 10.68805 | 106.52105 | 9171 ft | 246 kts | 129° |
| 2026-04-23 15:14 | 10.67741 | 106.53472 | 9804 ft | 248 kts | 123° |
| 2026-04-23 15:15 | 10.66832 | 106.54988 | 10334 ft | 252 kts | 119° |
| 2026-04-23 15:15 | 10.65962 | 106.56552 | 10879 ft | 256 kts | 118° |
| 2026-04-23 15:15 | 10.65234 | 106.58208 | 11451 ft | 257 kts | 108° |
| 2026-04-23 15:15 | 10.64790 | 106.59995 | 11968 ft | 261 kts | 99° |
| 2026-04-23 15:16 | 10.64486 | 106.61789 | 12596 ft | 262 kts | 98° |
| 2026-04-23 15:16 | 10.64189 | 106.63648 | 13185 ft | 265 kts | 97° |
| 2026-04-23 15:16 | 10.64046 | 106.65500 | 13740 ft | 267 kts | 89° |
| 2026-04-23 15:16 | 10.64157 | 106.67390 | 14235 ft | 268 kts | 77° |
| 2026-04-23 15:17 | 10.64613 | 106.69235 | 14743 ft | 271 kts | 71° |
| 2026-04-23 15:17 | 10.65246 | 106.71049 | 15229 ft | 274 kts | 69° |
| 2026-04-23 15:17 | 10.65996 | 106.72841 | 15727 ft | 277 kts | 64° |
| 2026-04-23 15:17 | 10.66891 | 106.74590 | 16193 ft | 281 kts | 59° |
| 2026-04-23 15:18 | 10.67911 | 106.76298 | 16691 ft | 284 kts | 58° |
| 2026-04-23 15:18 | 10.68960 | 106.78018 | 17167 ft | 288 kts | 58° |
| 2026-04-23 15:18 | 10.70017 | 106.79744 | 17634 ft | 292 kts | 58° |
| 2026-04-23 15:18 | 10.71096 | 106.81506 | 18131 ft | 295 kts | 58° |
| 2026-04-23 15:19 | 10.72197 | 106.83301 | 18391 ft | 306 kts | 58° |
| 2026-04-23 15:19 | 10.73354 | 106.85189 | 18503 ft | 322 kts | 58° |
| 2026-04-23 15:19 | 10.74570 | 106.87172 | 18625 ft | 338 kts | 58° |
| 2026-04-23 15:19 | 10.75845 | 106.89251 | 18733 ft | 354 kts | 58° |
| 2026-04-23 15:20 | 10.77173 | 106.91415 | 18857 ft | 368 kts | 58° |
| 2026-04-23 15:20 | 10.78554 | 106.93666 | 18969 ft | 382 kts | 58° |
| 2026-04-23 15:20 | 10.79985 | 106.95999 | 19102 ft | 394 kts | 58° |
| 2026-04-23 15:20 | 10.81438 | 106.98367 | 19556 ft | 395 kts | 58° |
| 2026-04-23 15:21 | 10.82894 | 107.00740 | 19997 ft | 397 kts | 58° |
| 2026-04-23 15:21 | 10.84363 | 107.03133 | 20406 ft | 400 kts | 58° |
| 2026-04-23 15:21 | 10.85838 | 107.05536 | 20811 ft | 402 kts | 58° |
| 2026-04-23 15:21 | 10.87327 | 107.07961 | 21214 ft | 405 kts | 58° |
| 2026-04-23 15:22 | 10.88822 | 107.10396 | 21631 ft | 407 kts | 58° |
| 2026-04-23 15:22 | 10.90327 | 107.12848 | 22019 ft | 409 kts | 58° |
| 2026-04-23 15:22 | 10.91840 | 107.15311 | 22408 ft | 412 kts | 58° |
| 2026-04-23 15:22 | 10.93361 | 107.17789 | 22797 ft | 414 kts | 59° |
| 2026-04-23 15:23 | 10.94936 | 107.20214 | 23166 ft | 417 kts | 51° |
| 2026-04-23 15:23 | 10.97081 | 107.22199 | 23515 ft | 420 kts | 33° |
| 2026-04-23 15:23 | 10.99635 | 107.23649 | 23806 ft | 422 kts | 24° |
| 2026-04-23 15:23 | 11.02396 | 107.24691 | 24110 ft | 424 kts | 20° |
| 2026-04-23 15:24 | 11.05151 | 107.25781 | 24414 ft | 426 kts | 21° |
| 2026-04-23 15:24 | 11.07840 | 107.27065 | 24709 ft | 428 kts | 27° |
| 2026-04-23 15:24 | 11.10480 | 107.28483 | 25022 ft | 429 kts | 28° |
| 2026-04-23 15:24 | 11.13128 | 107.29914 | 25329 ft | 431 kts | 28° |
| 2026-04-23 15:25 | 11.15786 | 107.31351 | 25640 ft | 433 kts | 28° |
| 2026-04-23 15:25 | 11.18425 | 107.32777 | 25949 ft | 435 kts | 28° |
| 2026-04-23 15:25 | 11.21110 | 107.34229 | 26273 ft | 437 kts | 28° |
| 2026-04-23 15:25 | 11.23804 | 107.35685 | 26579 ft | 439 kts | 28° |
| 2026-04-23 15:26 | 11.26512 | 107.37149 | 26883 ft | 441 kts | 28° |
| 2026-04-23 15:26 | 11.29230 | 107.38618 | 27185 ft | 443 kts | 28° |
| 2026-04-23 15:26 | 11.31962 | 107.40094 | 27485 ft | 445 kts | 28° |
| 2026-04-23 15:26 | 11.34705 | 107.41576 | 27787 ft | 447 kts | 28° |
| 2026-04-23 15:27 | 11.37463 | 107.43066 | 28090 ft | 449 kts | 28° |
| 2026-04-23 15:27 | 11.40222 | 107.44557 | 28391 ft | 451 kts | 28° |
| 2026-04-23 15:27 | 11.43018 | 107.46067 | 28520 ft | 457 kts | 28° |
| 2026-04-23 15:27 | 11.45838 | 107.47590 | 28666 ft | 462 kts | 28° |
| 2026-04-23 15:28 | 11.48695 | 107.49133 | 28819 ft | 467 kts | 28° |
| 2026-04-23 15:28 | 11.51582 | 107.50693 | 28921 ft | 472 kts | 28° |
| 2026-04-23 15:28 | 11.54510 | 107.52274 | 28930 ft | 480 kts | 28° |
| 2026-04-23 15:29 | 11.60432 | 107.55471 | 28931 ft | 486 kts | 28° |
| 2026-04-23 15:29 | 11.66415 | 107.58700 | 28931 ft | 487 kts | 28° |
| 2026-04-23 15:30 | 11.72402 | 107.61931 | 28943 ft | 487 kts | 28° |
| 2026-04-23 15:30 | 11.78395 | 107.65165 | 28947 ft | 487 kts | 28° |
| 2026-04-23 15:31 | 11.84376 | 107.68391 | 28943 ft | 486 kts | 28° |
| 2026-04-23 15:31 | 11.90353 | 107.71615 | 28939 ft | 486 kts | 28° |
| 2026-04-23 15:32 | 11.96331 | 107.74838 | 28935 ft | 485 kts | 28° |
| 2026-04-23 15:32 | 12.02304 | 107.78058 | 28929 ft | 485 kts | 28° |
| 2026-04-23 15:33 | 12.08276 | 107.81277 | 28920 ft | 485 kts | 28° |
| 2026-04-23 15:33 | 12.14259 | 107.84502 | 28919 ft | 485 kts | 28° |
| 2026-04-23 15:34 | 12.20234 | 107.87721 | 28914 ft | 485 kts | 28° |
| 2026-04-23 15:34 | 12.26169 | 107.90918 | 28922 ft | 485 kts | 28° |
| 2026-04-23 15:35 | 12.32137 | 107.94133 | 28911 ft | 485 kts | 28° |
| 2026-04-23 15:35 | 12.38107 | 107.97348 | 28906 ft | 484 kts | 28° |
| 2026-04-23 15:36 | 12.44073 | 108.00560 | 28905 ft | 484 kts | 28° |
| 2026-04-23 15:36 | 12.50044 | 108.03774 | 28903 ft | 484 kts | 28° |
| 2026-04-23 15:37 | 12.56210 | 108.06582 | 28900 ft | 484 kts | 24° |
| 2026-04-23 15:37 | 12.61207 | 108.09185 | 28892 ft | 485 kts | 27° |
| 2026-04-23 15:37 | 12.65159 | 108.11282 | 28494 ft | 478 kts | 24° |
| 2026-04-23 15:38 | 12.68307 | 108.12274 | 28048 ft | 474 kts | 8° |
| 2026-04-23 15:38 | 12.71597 | 108.12394 | 27429 ft | 473 kts | 356° |
| 2026-04-23 15:38 | 12.74894 | 108.12167 | 26822 ft | 475 kts | 355° |
| 2026-04-23 15:38 | 12.78182 | 108.11796 | 26225 ft | 477 kts | 351° |
| 2026-04-23 15:39 | 12.81473 | 108.11342 | 25637 ft | 478 kts | 354° |
| 2026-04-23 15:39 | 12.84797 | 108.11068 | 25063 ft | 479 kts | 355° |
| 2026-04-23 15:39 | 12.88125 | 108.10812 | 24490 ft | 478 kts | 355° |
| 2026-04-23 15:39 | 12.91435 | 108.10557 | 23938 ft | 475 kts | 356° |
| 2026-04-23 15:40 | 12.94729 | 108.10304 | 23382 ft | 472 kts | 356° |
| 2026-04-23 15:40 | 12.97995 | 108.10052 | 22735 ft | 467 kts | 356° |
| 2026-04-23 15:40 | 13.01176 | 108.09806 | 22124 ft | 463 kts | 356° |
| 2026-04-23 15:40 | 13.04372 | 108.09559 | 21520 ft | 458 kts | 355° |
| 2026-04-23 15:41 | 13.07542 | 108.09314 | 20937 ft | 453 kts | 355° |
| 2026-04-23 15:41 | 13.10670 | 108.09072 | 20369 ft | 448 kts | 355° |
| 2026-04-23 15:41 | 13.13774 | 108.08831 | 19815 ft | 444 kts | 355° |
| 2026-04-23 15:41 | 13.16840 | 108.08593 | 19281 ft | 439 kts | 355° |
| 2026-04-23 15:42 | 13.19873 | 108.08358 | 18767 ft | 435 kts | 356° |
| 2026-04-23 15:42 | 13.22880 | 108.08125 | 18248 ft | 432 kts | 355° |
| 2026-04-23 15:42 | 13.25867 | 108.07892 | 17642 ft | 428 kts | 355° |
| 2026-04-23 15:42 | 13.28785 | 108.07665 | 17042 ft | 424 kts | 356° |
| 2026-04-23 15:43 | 13.31719 | 108.07436 | 16449 ft | 419 kts | 356° |
| 2026-04-23 15:43 | 13.34619 | 108.07210 | 15831 ft | 412 kts | 356° |
| 2026-04-23 15:43 | 13.37471 | 108.06987 | 15101 ft | 410 kts | 356° |
| 2026-04-23 15:43 | 13.40299 | 108.06766 | 14510 ft | 406 kts | 356° |
| 2026-04-23 15:44 | 13.43098 | 108.06547 | 13929 ft | 402 kts | 356° |
| 2026-04-23 15:44 | 13.45882 | 108.06329 | 13306 ft | 398 kts | 356° |
| 2026-04-23 15:44 | 13.48605 | 108.06115 | 12692 ft | 395 kts | 356° |
| 2026-04-23 15:44 | 13.51329 | 108.05902 | 12090 ft | 390 kts | 356° |
| 2026-04-23 15:45 | 13.54029 | 108.05690 | 11507 ft | 386 kts | 355° |
| 2026-04-23 15:45 | 13.56696 | 108.05480 | 11134 ft | 374 kts | 355° |
| 2026-04-23 15:45 | 13.59212 | 108.05282 | 11019 ft | 351 kts | 355° |
| 2026-04-23 15:45 | 13.61575 | 108.05096 | 10892 ft | 331 kts | 355° |
| 2026-04-23 15:46 | 13.63813 | 108.04920 | 10773 ft | 313 kts | 355° |
| 2026-04-23 15:46 | 13.65943 | 108.04752 | 10468 ft | 303 kts | 355° |
| 2026-04-23 15:46 | 13.68039 | 108.04587 | 10082 ft | 302 kts | 355° |
| 2026-04-23 15:46 | 13.70127 | 108.04422 | 9737 ft | 300 kts | 355° |
| 2026-04-23 15:47 | 13.72175 | 108.04261 | 9379 ft | 297 kts | 355° |
| 2026-04-23 15:47 | 13.74202 | 108.04101 | 9242 ft | 286 kts | 355° |
| 2026-04-23 15:47 | 13.76153 | 108.03947 | 9122 ft | 275 kts | 355° |
| 2026-04-23 15:47 | 13.78030 | 108.03799 | 8997 ft | 265 kts | 354° |
| 2026-04-23 15:48 | 13.79805 | 108.03535 | 8898 ft | 252 kts | 338° |
| 2026-04-23 15:48 | 13.81228 | 108.02551 | 8823 ft | 246 kts | 309° |
| 2026-04-23 15:48 | 13.81968 | 108.01005 | 8477 ft | 241 kts | 277° |
| 2026-04-23 15:48 | 13.82021 | 107.99286 | 8153 ft | 240 kts | 266° |
| 2026-04-23 15:49 | 13.81958 | 107.98151 | 7953 ft | 240 kts | 265° |
| 2026-04-23 15:49 | 13.81886 | 107.96444 | 7662 ft | 238 kts | 275° |
| 2026-04-23 15:49 | 13.82191 | 107.94778 | 7371 ft | 237 kts | 286° |
| 2026-04-23 15:49 | 13.82798 | 107.93207 | 7091 ft | 236 kts | 298° |
| 2026-04-23 15:50 | 13.83657 | 107.91768 | 6797 ft | 236 kts | 302° |
| 2026-04-23 15:50 | 13.84925 | 107.89964 | 6448 ft | 235 kts | 310° |
| 2026-04-23 15:50 | 13.85667 | 107.89124 | 6254 ft | 234 kts | 312° |
| 2026-04-23 15:50 | 13.86814 | 107.87947 | 5955 ft | 233 kts | 321° |
| 2026-04-23 15:51 | 13.88155 | 107.87005 | 5658 ft | 234 kts | 326° |
| 2026-04-23 15:51 | 13.89522 | 107.86130 | 5469 ft | 226 kts | 327° |
| 2026-04-23 15:51 | 13.90830 | 107.85344 | 5325 ft | 217 kts | 333° |
| 2026-04-23 15:51 | 13.92205 | 107.84733 | 5083 ft | 214 kts | 336° |
| 2026-04-23 15:52 | 13.93602 | 107.84226 | 5011 ft | 213 kts | 343° |
| 2026-04-23 15:52 | 13.95053 | 107.83887 | 5017 ft | 214 kts | 346° |
| 2026-04-23 15:52 | 13.96509 | 107.83584 | 5012 ft | 214 kts | 349° |
| 2026-04-23 15:52 | 13.97997 | 107.83460 | 5016 ft | 215 kts | 357° |
| 2026-04-23 15:53 | 13.99442 | 107.83823 | 5007 ft | 217 kts | 31° |
| 2026-04-23 15:53 | 14.00379 | 107.84920 | 5017 ft | 198 kts | 68° |
| 2026-04-23 15:53 | 14.00625 | 107.86259 | 4879 ft | 186 kts | 86° |
| 2026-04-23 15:53 | 14.00677 | 107.87589 | 4587 ft | 186 kts | 92° |
| 2026-04-23 15:54 | 14.00627 | 107.88920 | 4309 ft | 184 kts | 94° |
| 2026-04-23 15:54 | 14.00594 | 107.90230 | 4033 ft | 180 kts | 90° |
| 2026-04-23 15:54 | 14.00618 | 107.91464 | 4042 ft | 166 kts | 89° |
| 2026-04-23 15:54 | 14.00648 | 107.92628 | 3832 ft | 158 kts | 88° |
| 2026-04-23 15:55 | 14.00658 | 107.93751 | 3632 ft | 156 kts | 93° |
| 2026-04-23 15:55 | 14.00572 | 107.94852 | 3466 ft | 154 kts | 97° |
| 2026-04-23 15:55 | 14.00522 | 107.95943 | 3286 ft | 154 kts | 91° |
| 2026-04-23 15:55 | 14.00521 | 107.97035 | 3084 ft | 151 kts | 91° |
| 2026-04-23 15:56 | 14.00490 | 107.98103 | 2880 ft | 148 kts | 92° |
| 2026-04-23 15:56 | 14.00474 | 107.99158 | 2685 ft | 147 kts | 92° |
| 2026-04-23 15:56 | 14.00469 | 108.00202 | 2531 ft | 145 kts | 91° |
| 2026-04-23 15:56 | 14.00450 | 108.01203 | 2436 ft | 119 kts | 91° |
| 2026-04-23 15:57 | 14.00441 | 108.01848 | 2428 ft | 64 kts | 91° |
| 2026-04-23 15:57 | 14.00433 | 108.02274 | 2415 ft | 58 kts | 91° |
| 2026-04-23 15:57 | 14.00435 | 108.02493 | 2415 ft | 14 kts | 60° |
| 2026-04-23 15:57 | 14.00433 | 108.02557 | 2414 ft | 4 kts | 168° |
| 2026-04-23 15:58 | 14.00427 | 108.02543 | 2414 ft | 5 kts | 257° |
| 2026-04-23 15:58 | 14.00424 | 108.02471 | 2415 ft | 11 kts | 271° |
| 2026-04-23 15:58 | 14.00429 | 108.02396 | 2415 ft | 10 kts | 275° |